sensor_id;sensor_type;location;lat;lon;timestamp;P1;durP1;ratioP1;P2;durP2;ratioP2
39982;SDS011;25670;44.782;10.356;2023-05-10T00:01:53;13.93;;;12.55;;
39982;SDS011;25670;44.782;10.356;2023-05-10T00:04:20;14.32;;;12.85;;
39982;SDS011;25670;44.782;10.356;2023-05-10T00:06:47;14.75;;;13.00;;
39982;SDS011;25670;44.782;10.356;2023-05-10T00:09:13;16.75;;;13.38;;
39982;SDS011;25670;44.782;10.356;2023-05-10T00:11:42;25.80;;;12.32;;
39982;SDS011;25670;44.782;10.356;2023-05-10T00:14:12;15.55;;;13.98;;
39982;SDS011;25670;44.782;10.356;2023-05-10T00:16:39;15.32;;;13.75;;
39982;SDS011;25670;44.782;10.356;2023-05-10T00:19:05;17.85;;;13.70;;
39982;SDS011;25670;44.782;10.356;2023-05-10T00:21:32;15.73;;;12.73;;
39982;SDS011;25670;44.782;10.356;2023-05-10T00:23:59;15.48;;;14.00;;
39982;SDS011;25670;44.782;10.356;2023-05-10T00:26:26;22.45;;;13.25;;
39982;SDS011;25670;44.782;10.356;2023-05-10T00:28:54;17.83;;;14.63;;
39982;SDS011;25670;44.782;10.356;2023-05-10T00:31:21;19.98;;;15.88;;
39982;SDS011;25670;44.782;10.356;2023-05-10T00:33:47;24.23;;;17.13;;
39982;SDS011;25670;44.782;10.356;2023-05-10T00:36:14;24.52;;;16.98;;
39982;SDS011;25670;44.782;10.356;2023-05-10T00:38:40;21.20;;;16.45;;
39982;SDS011;25670;44.782;10.356;2023-05-10T00:41:06;25.58;;;18.30;;
39982;SDS011;25670;44.782;10.356;2023-05-10T00:43:35;23.08;;;18.63;;
39982;SDS011;25670;44.782;10.356;2023-05-10T00:46:03;29.75;;;19.73;;
39982;SDS011;25670;44.782;10.356;2023-05-10T00:48:31;29.55;;;20.73;;
39982;SDS011;25670;44.782;10.356;2023-05-10T00:50:58;34.05;;;18.98;;
39982;SDS011;25670;44.782;10.356;2023-05-10T00:53:28;27.35;;;19.25;;
39982;SDS011;25670;44.782;10.356;2023-05-10T00:56:40;23.75;;;19.40;;
39982;SDS011;25670;44.782;10.356;2023-05-10T01:00:01;25.27;;;19.40;;
39982;SDS011;25670;44.782;10.356;2023-05-10T01:02:35;27.67;;;19.95;;
39982;SDS011;25670;44.782;10.356;2023-05-10T01:05:02;26.92;;;21.08;;
39982;SDS011;25670;44.782;10.356;2023-05-10T01:07:29;27.20;;;20.73;;
39982;SDS011;25670;44.782;10.356;2023-05-10T01:09:56;26.38;;;19.85;;
39982;SDS011;25670;44.782;10.356;2023-05-10T01:12:23;30.00;;;19.98;;
39982;SDS011;25670;44.782;10.356;2023-05-10T01:14:50;31.10;;;21.50;;
39982;SDS011;25670;44.782;10.356;2023-05-10T01:17:16;29.35;;;22.58;;
39982;SDS011;25670;44.782;10.356;2023-05-10T01:19:43;29.40;;;21.92;;
39982;SDS011;25670;44.782;10.356;2023-05-10T01:25:39;27.52;;;20.40;;
39982;SDS011;25670;44.782;10.356;2023-05-10T01:33:52;33.03;;;22.38;;
39982;SDS011;25670;44.782;10.356;2023-05-10T01:36:31;30.83;;;21.77;;
39982;SDS011;25670;44.782;10.356;2023-05-10T01:42:01;30.15;;;21.98;;
39982;SDS011;25670;44.782;10.356;2023-05-10T01:44:41;28.75;;;21.75;;
39982;SDS011;25670;44.782;10.356;2023-05-10T01:47:15;33.30;;;21.63;;
39982;SDS011;25670;44.782;10.356;2023-05-10T01:49:52;25.38;;;20.70;;
39982;SDS011;25670;44.782;10.356;2023-05-10T01:52:32;25.73;;;20.33;;
39982;SDS011;25670;44.782;10.356;2023-05-10T01:55:08;21.83;;;18.30;;
39982;SDS011;25670;44.782;10.356;2023-05-10T01:57:37;27.10;;;19.25;;
39982;SDS011;25670;44.782;10.356;2023-05-10T02:00:07;23.05;;;18.75;;
39982;SDS011;25670;44.782;10.356;2023-05-10T02:02:44;20.38;;;18.17;;
39982;SDS011;25670;44.782;10.356;2023-05-10T02:05:12;22.95;;;18.75;;
39982;SDS011;25670;44.782;10.356;2023-05-10T02:07:41;29.38;;;19.60;;
39982;SDS011;25670;44.782;10.356;2023-05-10T02:10:09;23.25;;;19.00;;
39982;SDS011;25670;44.782;10.356;2023-05-10T02:12:41;22.23;;;18.55;;
39982;SDS011;25670;44.782;10.356;2023-05-10T02:15:15;22.65;;;17.88;;
39982;SDS011;25670;44.782;10.356;2023-05-10T02:20:12;19.00;;;17.02;;
39982;SDS011;25670;44.782;10.356;2023-05-10T02:22:40;22.38;;;17.13;;
39982;SDS011;25670;44.782;10.356;2023-05-10T02:25:07;18.30;;;15.93;;
39982;SDS011;25670;44.782;10.356;2023-05-10T02:27:36;18.38;;;16.58;;
39982;SDS011;25670;44.782;10.356;2023-05-10T02:30:04;18.30;;;16.48;;
39982;SDS011;25670;44.782;10.356;2023-05-10T02:32:59;19.27;;;15.73;;
39982;SDS011;25670;44.782;10.356;2023-05-10T02:35:26;20.25;;;16.92;;
39982;SDS011;25670;44.782;10.356;2023-05-10T02:37:53;25.05;;;16.60;;
39982;SDS011;25670;44.782;10.356;2023-05-10T02:40:20;21.33;;;15.95;;
39982;SDS011;25670;44.782;10.356;2023-05-10T02:42:50;16.52;;;14.98;;
39982;SDS011;25670;44.782;10.356;2023-05-10T02:45:20;15.43;;;13.98;;
39982;SDS011;25670;44.782;10.356;2023-05-10T02:47:54;16.20;;;14.38;;
39982;SDS011;25670;44.782;10.356;2023-05-10T02:50:24;18.33;;;14.02;;
39982;SDS011;25670;44.782;10.356;2023-05-10T02:53:15;16.52;;;11.77;;
39982;SDS011;25670;44.782;10.356;2023-05-10T02:55:52;13.23;;;12.18;;
39982;SDS011;25670;44.782;10.356;2023-05-10T02:58:21;13.02;;;11.95;;
39982;SDS011;25670;44.782;10.356;2023-05-10T03:00:48;12.73;;;11.48;;
39982;SDS011;25670;44.782;10.356;2023-05-10T03:03:17;10.57;;;9.73;;
39982;SDS011;25670;44.782;10.356;2023-05-10T03:08:38;12.63;;;10.60;;
39982;SDS011;25670;44.782;10.356;2023-05-10T03:21:11;10.82;;;9.93;;
39982;SDS011;25670;44.782;10.356;2023-05-10T03:24:16;13.00;;;10.70;;
39982;SDS011;25670;44.782;10.356;2023-05-10T03:29:17;11.10;;;10.18;;
39982;SDS011;25670;44.782;10.356;2023-05-10T03:31:44;10.50;;;9.73;;
39982;SDS011;25670;44.782;10.356;2023-05-10T03:34:11;11.48;;;10.27;;
39982;SDS011;25670;44.782;10.356;2023-05-10T03:36:45;11.30;;;10.48;;
39982;SDS011;25670;44.782;10.356;2023-05-10T03:39:17;10.02;;;9.25;;
39982;SDS011;25670;44.782;10.356;2023-05-10T03:41:49;11.85;;;10.55;;
39982;SDS011;25670;44.782;10.356;2023-05-10T03:44:16;10.45;;;9.73;;
39982;SDS011;25670;44.782;10.356;2023-05-10T03:46:55;11.02;;;10.05;;
39982;SDS011;25670;44.782;10.356;2023-05-10T03:52:23;10.85;;;10.15;;
39982;SDS011;25670;44.782;10.356;2023-05-10T03:54:51;10.00;;;9.00;;
39982;SDS011;25670;44.782;10.356;2023-05-10T03:57:28;9.93;;;9.15;;
39982;SDS011;25670;44.782;10.356;2023-05-10T03:59:57;12.40;;;9.40;;
39982;SDS011;25670;44.782;10.356;2023-05-10T04:03:12;9.60;;;8.90;;
39982;SDS011;25670;44.782;10.356;2023-05-10T04:05:38;10.65;;;9.15;;
39982;SDS011;25670;44.782;10.356;2023-05-10T04:08:08;8.45;;;7.95;;
39982;SDS011;25670;44.782;10.356;2023-05-10T04:10:35;10.23;;;9.18;;
39982;SDS011;25670;44.782;10.356;2023-05-10T04:13:05;10.27;;;9.38;;
39982;SDS011;25670;44.782;10.356;2023-05-10T04:15:31;9.73;;;8.98;;
39982;SDS011;25670;44.782;10.356;2023-05-10T04:17:58;8.82;;;8.27;;
39982;SDS011;25670;44.782;10.356;2023-05-10T04:20:25;8.82;;;8.05;;
39982;SDS011;25670;44.782;10.356;2023-05-10T04:22:51;9.25;;;8.55;;
39982;SDS011;25670;44.782;10.356;2023-05-10T04:25:18;9.52;;;8.93;;
39982;SDS011;25670;44.782;10.356;2023-05-10T04:27:45;9.15;;;8.48;;
39982;SDS011;25670;44.782;10.356;2023-05-10T04:30:11;9.95;;;8.88;;
39982;SDS011;25670;44.782;10.356;2023-05-10T04:32:47;12.07;;;8.10;;
39982;SDS011;25670;44.782;10.356;2023-05-10T04:35:16;9.18;;;8.48;;
39982;SDS011;25670;44.782;10.356;2023-05-10T04:37:43;10.02;;;9.07;;
39982;SDS011;25670;44.782;10.356;2023-05-10T04:40:24;9.25;;;8.65;;
39982;SDS011;25670;44.782;10.356;2023-05-10T04:42:51;8.90;;;8.30;;
39982;SDS011;25670;44.782;10.356;2023-05-10T04:45:18;9.82;;;9.13;;
39982;SDS011;25670;44.782;10.356;2023-05-10T04:47:44;10.30;;;9.55;;
39982;SDS011;25670;44.782;10.356;2023-05-10T04:50:14;9.63;;;9.02;;
39982;SDS011;25670;44.782;10.356;2023-05-10T04:52:40;10.68;;;9.57;;
39982;SDS011;25670;44.782;10.356;2023-05-10T04:55:07;8.88;;;8.27;;
39982;SDS011;25670;44.782;10.356;2023-05-10T04:57:35;9.70;;;9.10;;
39982;SDS011;25670;44.782;10.356;2023-05-10T05:00:11;12.93;;;9.98;;
39982;SDS011;25670;44.782;10.356;2023-05-10T05:02:38;10.98;;;10.10;;
39982;SDS011;25670;44.782;10.356;2023-05-10T05:05:05;10.60;;;9.93;;
39982;SDS011;25670;44.782;10.356;2023-05-10T05:07:31;10.95;;;10.13;;
39982;SDS011;25670;44.782;10.356;2023-05-10T05:09:58;10.70;;;9.80;;
39982;SDS011;25670;44.782;10.356;2023-05-10T05:12:24;8.77;;;8.07;;
39982;SDS011;25670;44.782;10.356;2023-05-10T05:14:50;9.48;;;8.85;;
39982;SDS011;25670;44.782;10.356;2023-05-10T05:17:17;9.82;;;8.80;;
39982;SDS011;25670;44.782;10.356;2023-05-10T05:19:43;8.90;;;8.35;;
39982;SDS011;25670;44.782;10.356;2023-05-10T05:22:10;10.55;;;9.63;;
39982;SDS011;25670;44.782;10.356;2023-05-10T05:24:36;11.20;;;10.30;;
39982;SDS011;25670;44.782;10.356;2023-05-10T05:27:03;10.48;;;9.77;;
39982;SDS011;25670;44.782;10.356;2023-05-10T05:29:31;11.50;;;10.50;;
39982;SDS011;25670;44.782;10.356;2023-05-10T05:31:57;10.65;;;9.85;;
39982;SDS011;25670;44.782;10.356;2023-05-10T05:34:24;10.50;;;9.80;;
39982;SDS011;25670;44.782;10.356;2023-05-10T05:36:51;10.75;;;9.85;;
39982;SDS011;25670;44.782;10.356;2023-05-10T05:39:17;10.15;;;9.45;;
39982;SDS011;25670;44.782;10.356;2023-05-10T05:41:44;10.48;;;9.77;;
39982;SDS011;25670;44.782;10.356;2023-05-10T05:44:10;11.32;;;10.27;;
39982;SDS011;25670;44.782;10.356;2023-05-10T05:46:36;10.93;;;10.10;;
39982;SDS011;25670;44.782;10.356;2023-05-10T05:49:03;11.35;;;10.45;;
39982;SDS011;25670;44.782;10.356;2023-05-10T05:51:30;13.07;;;10.07;;
39982;SDS011;25670;44.782;10.356;2023-05-10T05:53:56;12.60;;;10.10;;
39982;SDS011;25670;44.782;10.356;2023-05-10T05:56:23;11.02;;;10.02;;
39982;SDS011;25670;44.782;10.356;2023-05-10T05:58:50;10.38;;;9.43;;
39982;SDS011;25670;44.782;10.356;2023-05-10T06:01:17;10.52;;;9.73;;
39982;SDS011;25670;44.782;10.356;2023-05-10T06:03:46;11.35;;;10.55;;
39982;SDS011;25670;44.782;10.356;2023-05-10T06:06:12;10.25;;;9.48;;
39982;SDS011;25670;44.782;10.356;2023-05-10T06:08:39;10.68;;;9.93;;
39982;SDS011;25670;44.782;10.356;2023-05-10T06:11:05;10.85;;;9.57;;
39982;SDS011;25670;44.782;10.356;2023-05-10T06:13:32;10.35;;;9.65;;
39982;SDS011;25670;44.782;10.356;2023-05-10T06:16:00;10.65;;;10.05;;
39982;SDS011;25670;44.782;10.356;2023-05-10T06:18:28;10.18;;;9.32;;
39982;SDS011;25670;44.782;10.356;2023-05-10T06:20:54;11.63;;;10.40;;
39982;SDS011;25670;44.782;10.356;2023-05-10T06:23:21;11.07;;;10.32;;
39982;SDS011;25670;44.782;10.356;2023-05-10T06:25:48;10.93;;;9.95;;
39982;SDS011;25670;44.782;10.356;2023-05-10T06:28:15;11.10;;;9.55;;
39982;SDS011;25670;44.782;10.356;2023-05-10T06:30:41;10.73;;;9.98;;
39982;SDS011;25670;44.782;10.356;2023-05-10T06:33:07;10.98;;;10.10;;
39982;SDS011;25670;44.782;10.356;2023-05-10T06:35:34;10.85;;;10.02;;
39982;SDS011;25670;44.782;10.356;2023-05-10T06:38:03;11.00;;;10.07;;
39982;SDS011;25670;44.782;10.356;2023-05-10T06:40:29;11.93;;;10.55;;
39982;SDS011;25670;44.782;10.356;2023-05-10T06:42:56;12.13;;;10.80;;
39982;SDS011;25670;44.782;10.356;2023-05-10T06:45:22;11.13;;;10.10;;
39982;SDS011;25670;44.782;10.356;2023-05-10T06:47:48;11.35;;;10.45;;
39982;SDS011;25670;44.782;10.356;2023-05-10T06:50:15;12.00;;;11.10;;
39982;SDS011;25670;44.782;10.356;2023-05-10T06:52:41;11.25;;;10.52;;
39982;SDS011;25670;44.782;10.356;2023-05-10T06:55:08;10.75;;;9.88;;
39982;SDS011;25670;44.782;10.356;2023-05-10T06:57:35;10.27;;;9.68;;
39982;SDS011;25670;44.782;10.356;2023-05-10T07:00:02;9.45;;;8.75;;
39982;SDS011;25670;44.782;10.356;2023-05-10T07:02:36;10.40;;;9.57;;
39982;SDS011;25670;44.782;10.356;2023-05-10T07:05:02;9.85;;;9.25;;
39982;SDS011;25670;44.782;10.356;2023-05-10T07:07:29;10.70;;;9.60;;
39982;SDS011;25670;44.782;10.356;2023-05-10T07:09:56;9.13;;;8.27;;
39982;SDS011;25670;44.782;10.356;2023-05-10T07:12:23;8.65;;;7.97;;
39982;SDS011;25670;44.782;10.356;2023-05-10T07:14:52;8.52;;;7.18;;
39982;SDS011;25670;44.782;10.356;2023-05-10T07:17:19;11.23;;;8.27;;
39982;SDS011;25670;44.782;10.356;2023-05-10T07:19:45;19.42;;;11.95;;
39982;SDS011;25670;44.782;10.356;2023-05-10T07:22:11;8.50;;;7.80;;
39982;SDS011;25670;44.782;10.356;2023-05-10T07:24:38;9.10;;;7.53;;
39982;SDS011;25670;44.782;10.356;2023-05-10T07:27:05;7.47;;;6.97;;
39982;SDS011;25670;44.782;10.356;2023-05-10T07:29:32;8.93;;;8.05;;
39982;SDS011;25670;44.782;10.356;2023-05-10T07:31:58;8.80;;;7.30;;
39982;SDS011;25670;44.782;10.356;2023-05-10T07:34:27;14.85;;;7.97;;
39982;SDS011;25670;44.782;10.356;2023-05-10T07:36:57;8.55;;;7.28;;
39982;SDS011;25670;44.782;10.356;2023-05-10T07:39:24;7.45;;;6.82;;
39982;SDS011;25670;44.782;10.356;2023-05-10T07:41:51;8.23;;;7.55;;
39982;SDS011;25670;44.782;10.356;2023-05-10T07:44:17;8.52;;;7.70;;
39982;SDS011;25670;44.782;10.356;2023-05-10T07:46:44;8.05;;;7.40;;
39982;SDS011;25670;44.782;10.356;2023-05-10T07:49:10;7.80;;;7.18;;
39982;SDS011;25670;44.782;10.356;2023-05-10T07:51:37;8.27;;;7.43;;
39982;SDS011;25670;44.782;10.356;2023-05-10T07:54:03;8.90;;;8.00;;
39982;SDS011;25670;44.782;10.356;2023-05-10T07:56:30;7.85;;;7.20;;
39982;SDS011;25670;44.782;10.356;2023-05-10T07:58:58;7.88;;;7.28;;
39982;SDS011;25670;44.782;10.356;2023-05-10T08:01:25;7.57;;;7.05;;
39982;SDS011;25670;44.782;10.356;2023-05-10T08:03:52;7.22;;;6.72;;
39982;SDS011;25670;44.782;10.356;2023-05-10T08:06:19;10.70;;;9.88;;
39982;SDS011;25670;44.782;10.356;2023-05-10T08:08:46;8.32;;;6.63;;
39982;SDS011;25670;44.782;10.356;2023-05-10T08:11:16;6.68;;;6.18;;
39982;SDS011;25670;44.782;10.356;2023-05-10T08:13:43;6.38;;;5.97;;
39982;SDS011;25670;44.782;10.356;2023-05-10T08:16:10;7.22;;;6.70;;
39982;SDS011;25670;44.782;10.356;2023-05-10T08:18:39;10.93;;;5.85;;
39982;SDS011;25670;44.782;10.356;2023-05-10T08:21:06;6.00;;;5.57;;
39982;SDS011;25670;44.782;10.356;2023-05-10T08:23:32;6.30;;;5.90;;
39982;SDS011;25670;44.782;10.356;2023-05-10T08:25:59;6.22;;;5.75;;
39982;SDS011;25670;44.782;10.356;2023-05-10T08:28:26;7.32;;;6.70;;
39982;SDS011;25670;44.782;10.356;2023-05-10T08:30:52;7.57;;;6.95;;
39982;SDS011;25670;44.782;10.356;2023-05-10T08:33:19;7.72;;;7.22;;
39982;SDS011;25670;44.782;10.356;2023-05-10T08:35:48;6.78;;;6.30;;
39982;SDS011;25670;44.782;10.356;2023-05-10T08:38:14;8.93;;;8.02;;
39982;SDS011;25670;44.782;10.356;2023-05-10T08:40:41;6.78;;;6.28;;
39982;SDS011;25670;44.782;10.356;2023-05-10T08:43:10;7.38;;;6.78;;
39982;SDS011;25670;44.782;10.356;2023-05-10T08:45:41;6.40;;;5.97;;
39982;SDS011;25670;44.782;10.356;2023-05-10T08:48:09;7.05;;;6.55;;
39982;SDS011;25670;44.782;10.356;2023-05-10T08:50:39;7.25;;;6.68;;
39982;SDS011;25670;44.782;10.356;2023-05-10T08:53:09;7.38;;;6.88;;
39982;SDS011;25670;44.782;10.356;2023-05-10T08:55:37;6.47;;;6.05;;
39982;SDS011;25670;44.782;10.356;2023-05-10T08:58:04;7.80;;;7.10;;
39982;SDS011;25670;44.782;10.356;2023-05-10T09:00:32;7.53;;;6.90;;
39982;SDS011;25670;44.782;10.356;2023-05-10T09:02:58;9.10;;;7.43;;
39982;SDS011;25670;44.782;10.356;2023-05-10T09:05:25;8.57;;;7.95;;
39982;SDS011;25670;44.782;10.356;2023-05-10T09:07:52;8.93;;;8.23;;
39982;SDS011;25670;44.782;10.356;2023-05-10T09:10:19;9.55;;;8.63;;
39982;SDS011;25670;44.782;10.356;2023-05-10T09:12:45;11.45;;;7.90;;
39982;SDS011;25670;44.782;10.356;2023-05-10T09:15:15;8.43;;;7.82;;
39982;SDS011;25670;44.782;10.356;2023-05-10T09:17:42;8.30;;;7.72;;
39982;SDS011;25670;44.782;10.356;2023-05-10T09:20:09;10.68;;;8.00;;
39982;SDS011;25670;44.782;10.356;2023-05-10T09:22:36;8.00;;;7.50;;
39982;SDS011;25670;44.782;10.356;2023-05-10T09:25:10;6.78;;;6.30;;
39982;SDS011;25670;44.782;10.356;2023-05-10T09:27:41;8.73;;;7.43;;
39982;SDS011;25670;44.782;10.356;2023-05-10T09:30:11;6.55;;;5.93;;
39982;SDS011;25670;44.782;10.356;2023-05-10T09:32:51;6.90;;;6.43;;
39982;SDS011;25670;44.782;10.356;2023-05-10T09:35:19;8.93;;;5.78;;
39982;SDS011;25670;44.782;10.356;2023-05-10T09:37:47;6.70;;;6.18;;
39982;SDS011;25670;44.782;10.356;2023-05-10T09:40:18;6.30;;;5.85;;
39982;SDS011;25670;44.782;10.356;2023-05-10T09:43:07;6.60;;;6.20;;
39982;SDS011;25670;44.782;10.356;2023-05-10T09:45:34;6.65;;;5.55;;
39982;SDS011;25670;44.782;10.356;2023-05-10T09:48:06;6.20;;;5.70;;
39982;SDS011;25670;44.782;10.356;2023-05-10T09:50:33;5.80;;;5.47;;
39982;SDS011;25670;44.782;10.356;2023-05-10T09:53:00;6.00;;;5.60;;
39982;SDS011;25670;44.782;10.356;2023-05-10T09:55:41;7.35;;;5.70;;
39982;SDS011;25670;44.782;10.356;2023-05-10T09:58:15;5.60;;;5.18;;
39982;SDS011;25670;44.782;10.356;2023-05-10T10:00:42;5.35;;;4.78;;
39982;SDS011;25670;44.782;10.356;2023-05-10T10:03:13;5.05;;;4.75;;
39982;SDS011;25670;44.782;10.356;2023-05-10T10:05:44;4.57;;;4.22;;
39982;SDS011;25670;44.782;10.356;2023-05-10T10:08:12;5.28;;;4.97;;
39982;SDS011;25670;44.782;10.356;2023-05-10T10:10:39;6.22;;;5.75;;
39982;SDS011;25670;44.782;10.356;2023-05-10T10:13:06;4.93;;;4.50;;
39982;SDS011;25670;44.782;10.356;2023-05-10T10:15:33;5.85;;;5.35;;
39982;SDS011;25670;44.782;10.356;2023-05-10T10:18:00;5.18;;;4.88;;
39982;SDS011;25670;44.782;10.356;2023-05-10T10:20:29;4.63;;;4.18;;
39982;SDS011;25670;44.782;10.356;2023-05-10T10:22:55;4.70;;;4.30;;
39982;SDS011;25670;44.782;10.356;2023-05-10T10:25:21;3.63;;;3.42;;
39982;SDS011;25670;44.782;10.356;2023-05-10T10:30:25;5.03;;;4.68;;
39982;SDS011;25670;44.782;10.356;2023-05-10T10:36:00;5.10;;;4.70;;
39982;SDS011;25670;44.782;10.356;2023-05-10T10:38:37;5.28;;;4.78;;
39982;SDS011;25670;44.782;10.356;2023-05-10T10:41:56;4.43;;;4.20;;
39982;SDS011;25670;44.782;10.356;2023-05-10T10:55:00;6.10;;;4.45;;
39982;SDS011;25670;44.782;10.356;2023-05-10T11:02:49;5.63;;;5.00;;
39982;SDS011;25670;44.782;10.356;2023-05-10T11:05:25;5.57;;;5.13;;
39982;SDS011;25670;44.782;10.356;2023-05-10T11:07:55;4.43;;;4.03;;
39982;SDS011;25670;44.782;10.356;2023-05-10T11:10:24;5.22;;;4.93;;
39982;SDS011;25670;44.782;10.356;2023-05-10T11:13:04;4.88;;;4.57;;
39982;SDS011;25670;44.782;10.356;2023-05-10T11:15:32;4.78;;;4.38;;
39982;SDS011;25670;44.782;10.356;2023-05-10T11:18:00;5.88;;;5.38;;
39982;SDS011;25670;44.782;10.356;2023-05-10T11:20:42;5.93;;;5.28;;
39982;SDS011;25670;44.782;10.356;2023-05-10T11:23:12;5.30;;;4.90;;
39982;SDS011;25670;44.782;10.356;2023-05-10T11:25:45;6.68;;;5.38;;
39982;SDS011;25670;44.782;10.356;2023-05-10T11:28:11;5.75;;;5.35;;
39982;SDS011;25670;44.782;10.356;2023-05-10T11:30:39;4.47;;;4.22;;
39982;SDS011;25670;44.782;10.356;2023-05-10T11:33:06;4.72;;;4.43;;
39982;SDS011;25670;44.782;10.356;2023-05-10T11:35:37;4.55;;;4.25;;
39982;SDS011;25670;44.782;10.356;2023-05-10T11:38:11;4.90;;;4.60;;
39982;SDS011;25670;44.782;10.356;2023-05-10T11:40:38;4.70;;;4.40;;
39982;SDS011;25670;44.782;10.356;2023-05-10T11:43:05;4.68;;;4.38;;
39982;SDS011;25670;44.782;10.356;2023-05-10T11:45:32;4.68;;;4.38;;
39982;SDS011;25670;44.782;10.356;2023-05-10T11:47:59;5.45;;;4.95;;
39982;SDS011;25670;44.782;10.356;2023-05-10T11:50:26;5.03;;;4.38;;
39982;SDS011;25670;44.782;10.356;2023-05-10T11:52:54;5.07;;;4.78;;
39982;SDS011;25670;44.782;10.356;2023-05-10T11:55:21;5.15;;;4.38;;
39982;SDS011;25670;44.782;10.356;2023-05-10T11:57:48;4.65;;;4.35;;
39982;SDS011;25670;44.782;10.356;2023-05-10T12:00:17;4.85;;;4.60;;
39982;SDS011;25670;44.782;10.356;2023-05-10T12:02:43;5.90;;;5.07;;
39982;SDS011;25670;44.782;10.356;2023-05-10T12:05:10;5.07;;;4.78;;
39982;SDS011;25670;44.782;10.356;2023-05-10T12:07:36;4.57;;;4.25;;
39982;SDS011;25670;44.782;10.356;2023-05-10T12:12:37;6.18;;;5.78;;
39982;SDS011;25670;44.782;10.356;2023-05-10T12:15:11;5.40;;;5.10;;
39982;SDS011;25670;44.782;10.356;2023-05-10T12:17:43;5.78;;;5.38;;
39982;SDS011;25670;44.782;10.356;2023-05-10T12:20:16;5.90;;;5.50;;
39982;SDS011;25670;44.782;10.356;2023-05-10T12:22:49;6.05;;;5.32;;
39982;SDS011;25670;44.782;10.356;2023-05-10T12:25:17;5.72;;;5.32;;
39982;SDS011;25670;44.782;10.356;2023-05-10T12:27:51;6.18;;;5.68;;
39982;SDS011;25670;44.782;10.356;2023-05-10T12:30:19;10.60;;;7.57;;
39982;SDS011;25670;44.782;10.356;2023-05-10T12:32:50;12.90;;;8.75;;
39982;SDS011;25670;44.782;10.356;2023-05-10T12:35:17;6.35;;;5.95;;
39982;SDS011;25670;44.782;10.356;2023-05-10T12:37:47;8.20;;;7.38;;
39982;SDS011;25670;44.782;10.356;2023-05-10T12:40:17;6.88;;;6.15;;
39982;SDS011;25670;44.782;10.356;2023-05-10T12:42:43;6.70;;;6.20;;
39982;SDS011;25670;44.782;10.356;2023-05-10T12:45:12;6.47;;;6.00;;
39982;SDS011;25670;44.782;10.356;2023-05-10T12:47:39;5.80;;;5.47;;
39982;SDS011;25670;44.782;10.356;2023-05-10T12:50:05;6.60;;;5.40;;
39982;SDS011;25670;44.782;10.356;2023-05-10T12:52:32;5.97;;;5.57;;
39982;SDS011;25670;44.782;10.356;2023-05-10T12:54:58;5.43;;;4.93;;
39982;SDS011;25670;44.782;10.356;2023-05-10T12:57:25;5.38;;;4.97;;
39982;SDS011;25670;44.782;10.356;2023-05-10T12:59:53;5.22;;;4.40;;
39982;SDS011;25670;44.782;10.356;2023-05-10T13:02:20;4.93;;;4.63;;
39982;SDS011;25670;44.782;10.356;2023-05-10T13:04:51;5.00;;;4.70;;
39982;SDS011;25670;44.782;10.356;2023-05-10T13:07:18;7.10;;;5.03;;
39982;SDS011;25670;44.782;10.356;2023-05-10T13:09:44;4.75;;;4.45;;
39982;SDS011;25670;44.782;10.356;2023-05-10T13:12:10;4.65;;;4.35;;
39982;SDS011;25670;44.782;10.356;2023-05-10T13:14:36;4.53;;;3.42;;
39982;SDS011;25670;44.782;10.356;2023-05-10T13:17:06;4.40;;;4.05;;
39982;SDS011;25670;44.782;10.356;2023-05-10T13:19:32;3.92;;;3.63;;
39982;SDS011;25670;44.782;10.356;2023-05-10T13:21:58;4.00;;;3.60;;
39982;SDS011;25670;44.782;10.356;2023-05-10T13:24:25;3.47;;;3.28;;
39982;SDS011;25670;44.782;10.356;2023-05-10T13:26:51;3.33;;;3.13;;
39982;SDS011;25670;44.782;10.356;2023-05-10T13:29:17;3.33;;;3.00;;
39982;SDS011;25670;44.782;10.356;2023-05-10T13:31:44;3.30;;;3.10;;
39982;SDS011;25670;44.782;10.356;2023-05-10T13:34:11;4.00;;;3.70;;
39982;SDS011;25670;44.782;10.356;2023-05-10T13:36:38;4.03;;;3.80;;
39982;SDS011;25670;44.782;10.356;2023-05-10T13:39:07;3.10;;;2.90;;
39982;SDS011;25670;44.782;10.356;2023-05-10T13:41:34;3.97;;;2.92;;
39982;SDS011;25670;44.782;10.356;2023-05-10T13:44:03;3.90;;;3.35;;
39982;SDS011;25670;44.782;10.356;2023-05-10T13:46:29;3.35;;;3.15;;
39982;SDS011;25670;44.782;10.356;2023-05-10T13:48:56;3.42;;;3.10;;
39982;SDS011;25670;44.782;10.356;2023-05-10T13:51:22;2.70;;;2.60;;
39982;SDS011;25670;44.782;10.356;2023-05-10T13:53:49;3.28;;;3.08;;
39982;SDS011;25670;44.782;10.356;2023-05-10T13:56:15;3.42;;;3.13;;
39982;SDS011;25670;44.782;10.356;2023-05-10T13:58:42;3.15;;;3.03;;
39982;SDS011;25670;44.782;10.356;2023-05-10T14:01:08;4.68;;;3.20;;
39982;SDS011;25670;44.782;10.356;2023-05-10T14:03:35;3.42;;;3.22;;
39982;SDS011;25670;44.782;10.356;2023-05-10T14:06:01;3.33;;;3.13;;
39982;SDS011;25670;44.782;10.356;2023-05-10T14:08:27;3.33;;;3.13;;
39982;SDS011;25670;44.782;10.356;2023-05-10T14:10:54;4.00;;;3.72;;
39982;SDS011;25670;44.782;10.356;2023-05-10T14:13:22;3.25;;;3.03;;
39982;SDS011;25670;44.782;10.356;2023-05-10T14:15:49;3.25;;;2.97;;
39982;SDS011;25670;44.782;10.356;2023-05-10T14:18:15;3.08;;;2.88;;
39982;SDS011;25670;44.782;10.356;2023-05-10T14:20:42;3.50;;;3.30;;
39982;SDS011;25670;44.782;10.356;2023-05-10T14:23:11;3.42;;;3.22;;
39982;SDS011;25670;44.782;10.356;2023-05-10T14:25:39;3.47;;;3.28;;
39982;SDS011;25670;44.782;10.356;2023-05-10T14:28:06;3.53;;;3.33;;
39982;SDS011;25670;44.782;10.356;2023-05-10T14:30:32;4.40;;;4.10;;
39982;SDS011;25670;44.782;10.356;2023-05-10T14:33:00;4.68;;;4.35;;
39982;SDS011;25670;44.782;10.356;2023-05-10T14:35:28;3.67;;;3.47;;
39982;SDS011;25670;44.782;10.356;2023-05-10T14:37:56;3.60;;;3.40;;
39982;SDS011;25670;44.782;10.356;2023-05-10T14:40:26;3.50;;;3.20;;
39982;SDS011;25670;44.782;10.356;2023-05-10T14:42:53;3.97;;;3.78;;
39982;SDS011;25670;44.782;10.356;2023-05-10T14:45:20;5.28;;;4.20;;
39982;SDS011;25670;44.782;10.356;2023-05-10T14:47:50;4.32;;;4.07;;
39982;SDS011;25670;44.782;10.356;2023-05-10T14:50:16;4.60;;;4.38;;
39982;SDS011;25670;44.782;10.356;2023-05-10T14:52:43;4.38;;;4.07;;
39982;SDS011;25670;44.782;10.356;2023-05-10T14:55:10;4.13;;;3.92;;
39982;SDS011;25670;44.782;10.356;2023-05-10T14:57:36;4.32;;;4.10;;
39982;SDS011;25670;44.782;10.356;2023-05-10T15:00:05;4.68;;;4.38;;
39982;SDS011;25670;44.782;10.356;2023-05-10T15:02:32;4.90;;;4.60;;
39982;SDS011;25670;44.782;10.356;2023-05-10T15:04:58;4.47;;;4.18;;
39982;SDS011;25670;44.782;10.356;2023-05-10T15:07:25;4.88;;;4.47;;
39982;SDS011;25670;44.782;10.356;2023-05-10T15:09:51;4.75;;;4.45;;
39982;SDS011;25670;44.782;10.356;2023-05-10T15:12:23;6.70;;;5.47;;
39982;SDS011;25670;44.782;10.356;2023-05-10T15:14:49;5.75;;;5.22;;
39982;SDS011;25670;44.782;10.356;2023-05-10T15:17:15;5.95;;;5.55;;
39982;SDS011;25670;44.782;10.356;2023-05-10T15:19:42;6.63;;;6.03;;
39982;SDS011;25670;44.782;10.356;2023-05-10T15:22:08;5.50;;;5.00;;
39982;SDS011;25670;44.782;10.356;2023-05-10T15:24:35;6.03;;;5.63;;
39982;SDS011;25670;44.782;10.356;2023-05-10T15:27:02;6.63;;;6.22;;
39982;SDS011;25670;44.782;10.356;2023-05-10T15:29:28;7.47;;;6.88;;
39982;SDS011;25670;44.782;10.356;2023-05-10T15:31:55;9.18;;;6.88;;
39982;SDS011;25670;44.782;10.356;2023-05-10T15:34:21;6.65;;;6.25;;